Time;durP1;ratioP1;P1;durP2;ratioP2;P2;SDS_P1;SDS_P2;PMS_P1;PMS_P2;Temp;Humidity;BMP_temperature;BMP_pressure;BME280_temperature;BME280_humidity;BME280_pressure;Samples;Min_cycle;Max_cycle;Signal;HPM_P1;HPM_P2
2021/12/23 00:01:48;;;;;;;17.23;11.97;;;0.30;99.90;;;;;;5034226;28;20458;-76
2021/12/23 00:04:14;;;;;;;17.50;11.17;;;0.30;99.90;;;;;;5034385;28;20042;-77
2021/12/23 00:06:43;;;;;;;20.37;12.83;;;0.30;99.90;;;;;;5034259;28;20085;-76
2021/12/23 00:09:09;;;;;;;17.52;12.00;;;0.30;99.90;;;;;;5034331;28;20045;-77
2021/12/23 00:11:35;;;;;;;18.83;12.20;;;0.30;99.90;;;;;;5033979;28;20053;-76
2021/12/23 00:14:07;;;;;;;16.10;11.80;;;0.30;99.90;;;;;;5034371;28;20056;-76
2021/12/23 00:16:46;;;;;;;17.55;11.65;;;0.30;99.90;;;;;;5032991;28;20045;-76
2021/12/23 00:24:49;;;;;;;15.45;11.48;;;0.30;99.90;;;;;;5033859;28;20104;-76
2021/12/23 00:27:15;;;;;;;18.30;11.52;;;0.30;99.90;;;;;;5032854;28;20183;-76
2021/12/23 00:29:41;;;;;;;17.40;11.10;;;0.30;99.90;;;;;;5033695;28;20128;-76
2021/12/23 00:32:08;;;;;;;18.55;11.55;;;0.40;99.90;;;;;;5033752;28;20187;-75
2021/12/23 00:34:38;;;;;;;17.90;12.10;;;0.40;99.90;;;;;;5033597;28;20132;-76
2021/12/23 00:37:07;;;;;;;19.52;12.00;;;0.40;99.90;;;;;;5033806;28;20045;-76
2021/12/23 00:39:33;;;;;;;18.00;11.15;;;0.40;99.90;;;;;;5032223;28;20393;-76
2021/12/23 00:42:06;;;;;;;21.13;12.30;;;0.40;99.90;;;;;;5033920;28;20045;-77
2021/12/23 00:44:33;;;;;;;20.30;12.77;;;0.40;99.90;;;;;;5033441;28;20512;-76
2021/12/23 00:46:59;;;;;;;19.42;11.88;;;0.40;99.90;;;;;;5033611;28;20057;-77
2021/12/23 00:49:24;;;;;;;17.73;11.90;;;0.40;99.90;;;;;;5032366;28;20390;-77
2021/12/23 00:51:50;;;;;;;16.87;11.90;;;0.40;99.90;;;;;;5033194;28;20050;-76
2021/12/23 00:54:16;;;;;;;20.03;12.70;;;0.50;99.90;;;;;;5032296;28;20132;-76
2021/12/23 00:56:48;;;;;;;16.67;11.43;;;0.50;99.90;;;;;;5033197;28;20099;-76
2021/12/23 00:59:13;;;;;;;16.88;12.35;;;0.50;99.90;;;;;;5033539;28;20125;-76
2021/12/23 01:01:39;;;;;;;17.17;11.40;;;0.50;99.90;;;;;;5032013;28;20133;-76
2021/12/23 01:04:05;;;;;;;16.87;11.57;;;0.50;99.90;;;;;;5033219;28;20042;-76
2021/12/23 01:06:31;;;;;;;16.83;11.33;;;0.50;99.90;;;;;;5033133;28;20054;-76
2021/12/23 01:08:56;;;;;;;18.50;12.40;;;0.50;99.90;;;;;;5032943;28;20049;-76
2021/12/23 01:11:24;;;;;;;17.20;11.57;;;0.40;99.90;;;;;;5032181;28;20159;-76
2021/12/23 01:14:24;;;;;;;19.90;14.07;;;0.40;99.90;;;;;;5032889;28;20049;-76
2021/12/23 01:19:15;;;;;;;17.55;13.05;;;0.40;99.90;;;;;;5033010;28;20490;-76
2021/12/23 01:21:41;;;;;;;15.68;11.07;;;0.40;99.90;;;;;;5033209;28;20111;-76
2021/12/23 01:24:09;;;;;;;17.80;11.93;;;0.40;99.90;;;;;;5033085;28;20048;-76
2021/12/23 01:26:35;;;;;;;18.05;13.25;;;0.40;99.90;;;;;;5032749;28;20466;-75
2021/12/23 01:29:00;;;;;;;15.37;11.37;;;0.50;99.90;;;;;;5032987;28;20080;-76
2021/12/23 01:31:29;;;;;;;16.07;11.60;;;0.50;99.90;;;;;;5032626;28;20068;-76
2021/12/23 01:33:55;;;;;;;16.17;11.38;;;0.40;99.90;;;;;;5031286;28;20053;-76
2021/12/23 01:36:22;;;;;;;19.23;11.95;;;0.40;99.90;;;;;;5032934;28;20509;-76
2021/12/23 01:38:48;;;;;;;18.67;12.00;;;0.40;99.90;;;;;;5031547;28;20068;-76
2021/12/23 01:41:14;;;;;;;18.60;11.98;;;0.40;99.90;;;;;;5032818;28;20095;-76
2021/12/23 01:43:41;;;;;;;17.00;12.43;;;0.30;99.90;;;;;;5032568;28;20130;-76
2021/12/23 01:46:07;;;;;;;17.88;11.73;;;0.30;99.90;;;;;;5032726;28;20133;-76
2021/12/23 01:48:34;;;;;;;16.70;12.07;;;0.30;99.90;;;;;;5032645;28;20057;-76
2021/12/23 01:51:00;;;;;;;18.13;11.95;;;0.40;99.90;;;;;;5032459;28;20472;-76
2021/12/23 01:53:26;;;;;;;21.27;12.27;;;0.30;99.90;;;;;;5032645;28;20076;-76
2021/12/23 01:55:51;;;;;;;17.83;12.30;;;0.40;99.90;;;;;;5032283;28;20132;-76
2021/12/23 01:58:18;;;;;;;20.33;13.13;;;0.40;99.90;;;;;;5032939;28;20045;-76
2021/12/23 02:00:47;;;;;;;18.20;12.40;;;0.50;99.90;;;;;;5032215;28;20041;-76
2021/12/23 02:03:13;;;;;;;17.77;12.25;;;0.50;99.90;;;;;;5032577;28;20132;-76
2021/12/23 02:05:40;;;;;;;17.83;12.18;;;0.50;99.90;;;;;;5032387;28;20068;-74
2021/12/23 02:08:07;;;;;;;17.65;12.15;;;0.50;99.90;;;;;;5032662;28;20049;-76
2021/12/23 02:10:33;;;;;;;18.90;13.43;;;0.50;99.90;;;;;;5031306;28;20049;-76
2021/12/23 02:12:59;;;;;;;17.97;12.23;;;0.50;99.90;;;;;;5034417;28;20353;-76
2021/12/23 02:15:25;;;;;;;17.43;12.30;;;0.50;99.90;;;;;;5036428;28;20041;-76
2021/12/23 02:17:52;;;;;;;15.90;11.18;;;0.50;99.90;;;;;;5036260;28;20760;-76
2021/12/23 02:20:28;;;;;;;15.65;11.68;;;0.50;99.90;;;;;;5036578;28;20084;-76
2021/12/23 02:22:54;;;;;;;20.30;12.55;;;0.50;99.90;;;;;;5035736;28;20132;-76
2021/12/23 02:25:20;;;;;;;16.57;11.57;;;0.40;99.90;;;;;;5036494;28;20116;-76
2021/12/23 02:27:47;;;;;;;21.33;13.37;;;0.50;99.90;;;;;;5035053;28;20408;-76
2021/12/23 02:30:22;;;;;;;17.48;11.70;;;0.50;99.90;;;;;;5036016;28;20048;-76
2021/12/23 02:32:48;;;;;;;18.40;12.07;;;0.50;99.90;;;;;;5035768;28;20057;-76
2021/12/23 02:35:17;;;;;;;17.05;12.45;;;0.50;99.90;;;;;;5036348;28;20049;-76
2021/12/23 02:37:44;;;;;;;19.67;12.32;;;0.40;99.90;;;;;;5035739;28;20049;-73
2021/12/23 02:40:21;;;;;;;19.38;12.18;;;0.40;99.90;;;;;;5034571;28;20398;-76
2021/12/23 02:42:46;;;;;;;18.52;12.80;;;0.40;99.90;;;;;;5034715;28;20485;-76
2021/12/23 02:45:12;;;;;;;18.63;12.27;;;0.40;99.90;;;;;;5034882;28;20053;-76
2021/12/23 02:47:38;;;;;;;18.00;12.30;;;0.40;99.90;;;;;;5035746;28;20543;-76
2021/12/23 02:50:05;;;;;;;18.20;12.53;;;0.50;99.90;;;;;;5035476;28;20049;-76
2021/12/23 02:52:33;;;;;;;17.20;13.30;;;0.40;99.90;;;;;;5035785;28;20052;-76
2021/12/23 02:54:59;;;;;;;18.15;12.45;;;0.30;99.90;;;;;;5034995;28;20486;-76
2021/12/23 02:57:25;;;;;;;21.67;13.07;;;0.40;99.90;;;;;;5035671;28;20052;-76
2021/12/23 02:59:51;;;;;;;18.13;13.45;;;0.40;99.90;;;;;;5035202;28;20045;-76
2021/12/23 03:02:17;;;;;;;19.80;12.82;;;0.40;99.90;;;;;;5035503;28;20443;-76
2021/12/23 03:04:43;;;;;;;18.63;13.13;;;0.30;99.90;;;;;;5035703;28;20095;-76
2021/12/23 03:07:09;;;;;;;19.80;12.67;;;0.30;99.90;;;;;;5035222;28;20756;-76
2021/12/23 03:09:35;;;;;;;18.20;12.53;;;0.40;99.90;;;;;;5035513;28;20344;-76
2021/12/23 03:12:00;;;;;;;19.48;12.93;;;0.40;99.90;;;;;;5035070;28;20052;-76
2021/12/23 03:14:26;;;;;;;19.17;13.07;;;0.40;99.90;;;;;;5035554;28;20460;-76
2021/12/23 03:16:52;;;;;;;18.87;13.27;;;0.40;99.90;;;;;;5035097;28;20054;-76
2021/12/23 03:19:17;;;;;;;19.17;12.30;;;0.40;99.90;;;;;;5034256;28;20049;-76
2021/12/23 03:21:46;;;;;;;17.90;13.07;;;0.40;99.90;;;;;;5035296;28;20085;-76
2021/12/23 03:24:15;;;;;;;19.73;13.27;;;0.50;99.90;;;;;;5033967;28;20045;-76
2021/12/23 03:26:41;;;;;;;22.02;13.70;;;0.50;99.90;;;;;;5035298;28;20053;-76
2021/12/23 03:29:11;;;;;;;21.00;13.20;;;0.50;99.90;;;;;;5034732;28;20124;-76
2021/12/23 03:31:37;;;;;;;19.35;12.93;;;0.50;99.90;;;;;;5018131;28;20068;-76
2021/12/23 03:34:03;;;;;;;17.55;12.95;;;0.50;99.90;;;;;;5033521;28;20058;-76
2021/12/23 03:36:29;;;;;;;18.73;13.10;;;0.50;99.90;;;;;;5033831;28;20042;-76
2021/12/23 03:38:55;;;;;;;18.87;13.67;;;0.50;99.90;;;;;;5034617;28;20280;-76
2021/12/23 03:41:20;;;;;;;20.27;14.00;;;0.50;99.90;;;;;;5034951;28;20482;-76
2021/12/23 03:43:46;;;;;;;17.37;12.90;;;0.60;99.90;;;;;;5033610;28;20045;-76
2021/12/23 03:46:12;;;;;;;19.07;13.10;;;0.50;99.90;;;;;;5033497;28;20050;-76
2021/12/23 03:48:38;;;;;;;19.83;13.17;;;0.60;99.90;;;;;;5033744;28;20053;-76
2021/12/23 03:51:04;;;;;;;22.50;13.88;;;;;;;;;;5034395;28;20043;-76
2021/12/23 03:53:30;;;;;;;19.67;13.27;;;0.60;99.90;;;;;;5034778;28;20050;-76
2021/12/23 03:55:56;;;;;;;20.23;13.67;;;0.70;99.90;;;;;;5034245;28;20547;-76
2021/12/23 03:58:21;;;;;;;18.43;12.77;;;0.60;99.90;;;;;;5033576;28;20042;-76
2021/12/23 04:00:48;;;;;;;19.10;13.20;;;0.70;99.90;;;;;;5016842;28;20041;-76
2021/12/23 04:03:13;;;;;;;17.60;13.20;;;0.70;99.90;;;;;;5034232;28;20397;-76
2021/12/23 04:05:39;;;;;;;20.27;12.40;;;0.60;99.90;;;;;;5034400;28;20042;-76
2021/12/23 04:08:06;;;;;;;18.53;13.17;;;0.70;99.90;;;;;;5034075;28;20045;-76
2021/12/23 04:10:32;;;;;;;20.73;13.35;;;0.70;99.90;;;;;;5034351;28;20048;-76
2021/12/23 04:12:58;;;;;;;19.42;13.15;;;0.70;99.90;;;;;;5033968;28;20075;-75
2021/12/23 04:15:24;;;;;;;18.35;13.45;;;0.70;99.90;;;;;;5033057;28;20049;-76
2021/12/23 04:17:50;;;;;;;18.42;13.43;;;0.70;99.90;;;;;;5034312;28;20054;-76
2021/12/23 04:20:22;;;;;;;23.57;15.03;;;0.70;99.90;;;;;;5033814;28;20076;-76
2021/12/23 04:22:54;;;;;;;18.50;13.85;;;0.80;99.90;;;;;;5033271;28;20045;-74
2021/12/23 04:25:22;;;;;;;23.10;14.65;;;0.80;99.90;;;;;;5034057;28;20045;-74
2021/12/23 04:27:50;;;;;;;19.05;14.00;;;0.80;99.90;;;;;;5034008;28;20090;-74
2021/12/23 04:30:16;;;;;;;18.58;12.82;;;0.80;99.90;;;;;;5033515;28;20405;-74
2021/12/23 04:32:42;;;;;;;18.55;13.60;;;0.80;99.90;;;;;;5032412;28;20136;-74
2021/12/23 04:35:09;;;;;;;18.13;13.63;;;0.80;99.90;;;;;;5033238;28;20132;-74
2021/12/23 04:37:35;;;;;;;21.08;13.95;;;0.80;99.90;;;;;;5033712;28;20589;-74
2021/12/23 04:40:02;;;;;;;17.40;13.27;;;0.90;99.90;;;;;;5033308;28;20049;-74
2021/12/23 04:42:28;;;;;;;22.92;13.77;;;0.80;99.90;;;;;;5033771;28;20081;-74
2021/12/23 04:44:53;;;;;;;19.00;13.37;;;0.80;99.90;;;;;;5032640;28;20115;-74
2021/12/23 04:47:19;;;;;;;19.63;13.83;;;0.80;99.90;;;;;;5033300;28;20089;-74
2021/12/23 04:49:45;;;;;;;19.50;13.77;;;0.80;99.90;;;;;;5033468;28;20047;-74
2021/12/23 04:52:11;;;;;;;20.10;14.13;;;0.80;99.90;;;;;;5033250;28;20049;-74
2021/12/23 04:54:36;;;;;;;18.83;13.90;;;0.80;99.90;;;;;;5033574;28;20053;-74
2021/12/23 04:57:02;;;;;;;18.00;13.87;;;0.80;99.90;;;;;;5033138;28;20485;-74
2021/12/23 04:59:28;;;;;;;20.93;13.43;;;0.90;99.90;;;;;;5032567;28;20084;-74
2021/12/23 05:01:54;;;;;;;19.07;14.20;;;0.90;99.90;;;;;;5033315;28;20051;-74
2021/12/23 05:04:19;;;;;;;21.53;13.60;;;0.80;99.90;;;;;;5033026;28;20049;-74
2021/12/23 05:06:45;;;;;;;20.87;13.60;;;0.80;99.90;;;;;;5032978;28;20140;-74
2021/12/23 05:09:11;;;;;;;23.83;14.80;;;0.80;99.90;;;;;;5033268;28;20052;-74
2021/12/23 05:11:37;;;;;;;21.80;14.17;;;0.80;99.90;;;;;;5032209;28;20053;-74
2021/12/23 05:14:02;;;;;;;22.33;14.60;;;0.80;99.90;;;;;;5032805;28;20052;-74
2021/12/23 05:16:28;;;;;;;24.07;15.13;;;0.80;99.90;;;;;;5032779;28;20049;-74
2021/12/23 05:18:54;;;;;;;19.10;14.20;;;0.80;99.90;;;;;;5031889;28;20045;-74
2021/12/23 05:21:19;;;;;;;21.10;14.90;;;0.80;99.90;;;;;;5032616;28;20595;-74
2021/12/23 05:23:45;;;;;;;19.40;13.80;;;0.80;99.90;;;;;;5033047;28;20046;-74
2021/12/23 05:26:11;;;;;;;20.57;15.13;;;0.80;99.90;;;;;;5032541;28;20045;-74
2021/12/23 05:28:37;;;;;;;20.80;14.90;;;0.90;99.90;;;;;;5032974;28;20068;-74
2021/12/23 05:31:04;;;;;;;24.13;15.95;;;0.90;99.90;;;;;;5032326;28;20095;-73
2021/12/23 05:33:30;;;;;;;19.80;14.45;;;0.80;99.90;;;;;;5032377;28;20072;-74
2021/12/23 05:35:56;;;;;;;21.83;14.57;;;0.90;99.90;;;;;;5032747;28;20045;-74
2021/12/23 05:38:23;;;;;;;18.90;14.40;;;0.90;99.90;;;;;;5032373;28;20135;-74
2021/12/23 05:40:48;;;;;;;19.90;14.07;;;0.90;99.90;;;;;;5032599;28;20041;-74
2021/12/23 05:43:14;;;;;;;22.30;15.23;;;0.90;99.90;;;;;;5032418;28;20462;-74
2021/12/23 05:45:40;;;;;;;23.50;16.13;;;0.90;99.90;;;;;;5031957;28;20053;-74
2021/12/23 05:48:06;;;;;;;20.45;15.88;;;0.90;99.90;;;;;;5021039;28;20041;-74
2021/12/23 05:50:32;;;;;;;23.17;15.40;;;1.00;99.90;;;;;;5038248;28;20056;-74
2021/12/23 05:52:57;;;;;;;22.47;15.87;;;1.00;99.90;;;;;;5039259;28;20122;-74
2021/12/23 05:55:24;;;;;;;24.90;14.70;;;1.00;99.90;;;;;;5038820;28;20564;-74
2021/12/23 05:57:50;;;;;;;19.45;15.23;;;1.10;99.90;;;;;;5037931;28;20409;-74
2021/12/23 06:00:27;;;;;;;20.37;16.03;;;1.00;99.90;;;;;;5038674;28;20041;-74
2021/12/23 06:02:53;;;;;;;23.77;16.10;;;1.00;99.90;;;;;;5039196;28;20128;-74
2021/12/23 06:05:19;;;;;;;21.52;15.90;;;1.00;99.90;;;;;;5039011;28;20057;-74
2021/12/23 06:07:46;;;;;;;21.88;15.60;;;1.00;99.90;;;;;;5039140;28;20045;-74
2021/12/23 06:10:14;;;;;;;21.73;16.20;;;1.00;99.90;;;;;;5038871;28;20045;-74
2021/12/23 06:12:40;;;;;;;21.25;16.20;;;1.00;99.90;;;;;;5039070;28;20456;-74
2021/12/23 06:15:07;;;;;;;23.67;15.80;;;1.10;99.90;;;;;;5038737;28;20085;-72
2021/12/23 06:17:33;;;;;;;24.00;15.80;;;1.10;99.90;;;;;;5038608;28;20532;-74
2021/12/23 06:19:59;;;;;;;22.25;16.05;;;1.10;99.90;;;;;;5037745;28;20505;-76
2021/12/23 06:22:26;;;;;;;24.23;15.80;;;;;;;;;;5038727;28;20045;-75
2021/12/23 06:24:52;;;;;;;24.83;16.80;;;;;;;;;;5039055;28;20103;-76
2021/12/23 06:27:19;;;;;;;23.52;16.88;;;1.20;99.90;;;;;;5038674;28;20052;-76
2021/12/23 06:29:45;;;;;;;25.27;17.33;;;1.20;99.90;;;;;;5021563;28;20057;-76
2021/12/23 06:32:11;;;;;;;23.08;17.17;;;1.20;99.90;;;;;;5038411;28;20081;-73
2021/12/23 06:34:38;;;;;;;24.52;16.30;;;1.10;99.90;;;;;;5039273;28;20402;-73
2021/12/23 06:37:04;;;;;;;22.85;15.98;;;1.20;99.90;;;;;;5037819;28;20482;-74
2021/12/23 06:39:32;;;;;;;23.80;17.33;;;1.20;99.90;;;;;;5038417;28;20045;-74
2021/12/23 06:41:57;;;;;;;22.70;15.98;;;1.20;99.90;;;;;;5038719;28;20495;-74
2021/12/23 06:44:23;;;;;;;21.40;15.87;;;1.20;99.90;;;;;;5038456;28;20140;-74
2021/12/23 06:46:49;;;;;;;26.30;17.00;;;1.10;99.90;;;;;;5038804;28;20119;-74
2021/12/23 06:49:16;;;;;;;22.70;17.73;;;1.10;99.90;;;;;;5038365;28;20446;-74
2021/12/23 06:51:42;;;;;;;23.15;17.27;;;1.10;99.90;;;;;;5038636;28;20045;-74
2021/12/23 06:54:09;;;;;;;25.58;17.90;;;1.10;99.90;;;;;;5038737;28;20131;-74
2021/12/23 06:56:35;;;;;;;23.42;17.67;;;1.20;99.90;;;;;;5037428;28;20053;-74
2021/12/23 06:59:01;;;;;;;24.70;17.03;;;1.10;99.90;;;;;;5034807;28;20052;-74
2021/12/23 07:01:26;;;;;;;22.63;16.02;;;1.10;99.90;;;;;;5035213;28;20080;-74
2021/12/23 07:06:24;;;;;;;21.33;16.95;;;1.10;99.90;;;;;;5034928;28;20489;-74
2021/12/23 07:08:50;;;;;;;22.90;16.42;;;1.10;99.90;;;;;;5034205;28;20056;-74
2021/12/23 07:11:16;;;;;;;22.45;16.95;;;1.10;99.90;;;;;;5035064;28;20046;-74
2021/12/23 07:13:41;;;;;;;22.47;16.37;;;1.10;99.90;;;;;;5035304;28;20053;-74
2021/12/23 07:16:07;;;;;;;25.57;18.13;;;1.10;99.90;;;;;;5035073;28;20129;-74
2021/12/23 07:18:33;;;;;;;21.80;16.77;;;1.20;99.90;;;;;;5033653;28;20134;-74
2021/12/23 07:20:59;;;;;;;22.33;17.40;;;1.10;99.90;;;;;;5035135;28;20041;-74
2021/12/23 07:23:25;;;;;;;25.63;17.20;;;;;;;;;;5034889;28;20055;-74
2021/12/23 07:25:51;;;;;;;24.52;18.08;;;;;;;;;;5035279;28;20285;-75
2021/12/23 07:28:17;;;;;;;22.00;16.95;;;;;;;;;;5034757;28;20106;-74
2021/12/23 07:30:43;;;;;;;26.27;17.63;;;;;;;;;;5034597;28;20501;-74
2021/12/23 07:33:09;;;;;;;23.42;18.08;;;;;;;;;;5034481;28;20049;-74
2021/12/23 07:35:35;;;;;;;24.63;18.15;;;;;;;;;;5034455;28;20049;-76
2021/12/23 07:38:02;;;;;;;25.40;18.15;;;;;;;;;;5034812;28;20399;-76
2021/12/23 07:40:29;;;;;;;21.95;17.20;;;;;;;;;;5034356;28;20048;-75
2021/12/23 07:42:57;;;;;;;26.38;18.05;;;;;;;;;;5034778;28;20056;-75
2021/12/23 07:45:27;;;;;;;24.52;17.13;;;;;;;;;;5034419;28;20057;-75
2021/12/23 07:47:53;;;;;;;22.95;17.38;;;;;;;;;;5034916;28;20052;-78
2021/12/23 07:50:19;;;;;;;25.38;18.45;;;;;;;;;;5033414;28;20061;-74
2021/12/23 07:52:45;;;;;;;31.48;19.52;;;;;;;;;;5034678;28;20088;-75
2021/12/23 07:55:12;;;;;;;24.40;17.73;;;;;;;;;;5034591;28;20049;-75
2021/12/23 07:57:38;;;;;;;25.88;18.98;;;;;;;;;;5034301;28;20049;-75
2021/12/23 08:00:05;;;;;;;23.88;18.42;;;;;;;;;;5034414;28;20049;-76
2021/12/23 08:02:31;;;;;;;25.40;19.77;;;;;;;;;;5033926;28;20563;-75
2021/12/23 08:04:57;;;;;;;25.80;18.48;;;;;;;;;;5034678;28;20135;-76
2021/12/23 08:07:24;;;;;;;29.45;20.27;;;;;;;;;;5034075;28;20053;-75
2021/12/23 08:09:50;;;;;;;27.98;20.13;;;;;;;;;;5033935;28;20051;-75
2021/12/23 08:12:16;;;;;;;28.25;19.70;;;;;;;;;;5034365;28;20107;-76
2021/12/23 08:14:42;;;;;;;27.75;20.45;;;;;;;;;;5033902;28;20064;-75
2021/12/23 08:17:08;;;;;;;29.10;20.83;;;;;;;;;;5034280;28;20045;-73
2021/12/23 08:19:34;;;;;;;31.73;20.85;;;;;;;;;;5033889;28;20038;-77
2021/12/23 08:22:00;;;;;;;26.52;19.83;;;;;;;;;;5016608;28;20057;-77
2021/12/23 08:24:26;;;;;;;28.63;22.70;;;;;;;;;;5034061;28;20087;-74
2021/12/23 08:26:54;;;;;;;29.00;20.75;;;;;;;;;;5034222;28;20139;-75
2021/12/23 08:29:21;;;;;;;31.20;22.10;;;;;;;;;;5033956;28;20080;-75
2021/12/23 08:31:52;;;;;;;30.75;21.55;;;;;;;;;;5033983;28;20054;-75
2021/12/23 08:34:18;;;;;;;29.33;22.17;;;;;;;;;;5033955;28;20115;-88
2021/12/23 08:36:44;;;;;;;31.90;23.55;;;;;;;;;;5032632;28;20470;-77
2021/12/23 08:39:11;;;;;;;34.63;24.40;;;;;;;;;;5033751;28;20133;-77
2021/12/23 08:41:37;;;;;;;35.40;24.38;;;;;;;;;;5033490;28;20049;-75
2021/12/23 08:44:03;;;;;;;33.72;23.80;;;;;;;;;;5033975;28;20123;-75
2021/12/23 08:46:29;;;;;;;36.40;25.08;;;;;;;;;;5032400;28;20049;-73
2021/12/23 08:48:55;;;;;;;34.97;25.58;;;;;;;;;;5033584;28;20049;-74
2021/12/23 08:51:22;;;;;;;34.85;25.98;;;;;;;;;;5033392;28;20481;-74
2021/12/23 08:53:48;;;;;;;35.10;25.25;;;;;;;;;;5032526;28;20071;-74
2021/12/23 08:56:14;;;;;;;38.00;27.48;;;;;;;;;;5033442;28;20042;-74
2021/12/23 08:58:42;;;;;;;38.85;25.40;;;;;;;;;;5033139;28;20098;-74
2021/12/23 09:01:08;;;;;;;36.28;25.67;;;;;;;;;;5033445;28;20367;-73
2021/12/23 09:03:34;;;;;;;35.05;24.67;;;;;;;;;;5031926;28;20516;-73
2021/12/23 09:06:01;;;;;;;38.10;26.48;;;;;;;;;;5032417;28;20049;-74
2021/12/23 09:08:27;;;;;;;38.42;27.15;;;;;;;;;;5033076;28;20053;-74
2021/12/23 09:10:54;;;;;;;38.35;26.60;;;;;;;;;;5033364;28;20088;-73
2021/12/23 09:13:20;;;;;;;36.80;25.92;;;;;;;;;;5033262;28;20132;-73
2021/12/23 09:15:46;;;;;;;43.80;28.65;;;;;;;;;;5033007;28;20049;-73
2021/12/23 09:18:12;;;;;;;42.58;29.90;;;;;;;;;;5033353;28;20052;-74
2021/12/23 09:20:38;;;;;;;47.30;29.08;;;;;;;;;;5032370;28;20068;-73
2021/12/23 09:23:07;;;;;;;46.97;29.60;;;;;;;;;;5032737;28;20053;-75
2021/12/23 09:25:34;;;;;;;45.90;30.63;;;1.40;99.90;;;;;;5032780;28;20049;-74
2021/12/23 09:33:14;;;;;;;51.90;32.42;;;1.30;99.90;;;;;;5033073;28;20132;-74
2021/12/23 09:35:40;;;;;;;54.97;34.80;;;1.30;99.90;;;;;;5032763;28;20050;-73
2021/12/23 09:38:06;;;;;;;52.25;34.10;;;1.30;99.90;;;;;;5032967;28;20668;-71
2021/12/23 09:40:33;;;;;;;56.58;36.05;;;1.30;99.90;;;;;;5032540;28;20037;-73
2021/12/23 09:43:05;;;;;;;53.63;33.53;;;1.30;99.90;;;;;;5032921;28;20101;-73
2021/12/23 09:45:32;;;;;;;56.72;35.25;;;1.30;99.90;;;;;;5032796;28;20060;-74
2021/12/23 09:47:58;;;;;;;61.45;37.80;;;;;;;;;;5031859;28;20047;-72
2021/12/23 09:50:31;;;;;;;62.08;37.10;;;1.40;99.90;;;;;;5033153;28;20041;-74
2021/12/23 09:53:00;;;;;;;62.65;36.63;;;1.40;99.90;;;;;;5033360;28;20148;-72
2021/12/23 09:55:27;;;;;;;63.67;37.38;;;1.40;99.90;;;;;;5031610;28;20124;-72
2021/12/23 09:57:57;;;;;;;67.25;38.90;;;1.40;99.90;;;;;;5032635;28;20494;-69
2021/12/23 10:00:29;;;;;;;67.07;38.80;;;1.40;99.90;;;;;;5032782;28;20359;-69
2021/12/23 10:02:56;;;;;;;67.40;38.60;;;1.40;99.90;;;;;;5032969;28;20108;-70
2021/12/23 10:05:26;;;;;;;56.53;35.35;;;1.40;99.90;;;;;;5033022;28;20129;-69
2021/12/23 10:07:54;;;;;;;55.15;35.55;;;1.50;99.90;;;;;;5032493;28;20045;-69
2021/12/23 10:10:35;;;;;;;63.97;38.28;;;1.50;99.90;;;;;;5032591;28;20087;-72
2021/12/23 10:30:24;;;;;;;64.30;36.60;;;1.50;99.90;;;;;;5032539;28;20470;-71
2021/12/23 10:38:22;;;;;;;62.83;37.17;;;1.50;99.90;;;;;;5016605;28;20085;-71
2021/12/23 10:40:53;;;;;;;64.70;38.25;;;1.50;99.90;;;;;;5035625;28;20128;-71
2021/12/23 10:43:34;;;;;;;68.63;39.63;;;1.50;99.90;;;;;;5036224;28;20045;-71
2021/12/23 10:46:25;;;;;;;68.72;38.28;;;1.50;99.90;;;;;;5035942;28;20132;-72
2021/12/23 10:49:32;;;;;;;60.53;36.72;;;1.60;99.90;;;;;;5035151;28;20092;-72
2021/12/23 11:00:32;;;;;;;64.63;36.72;;;1.60;99.90;;;;;;5024536;28;20061;-71
2021/12/23 11:03:14;;;;;;;61.30;36.75;;;1.50;99.90;;;;;;5006608;28;20379;-71
2021/12/23 11:05:51;;;;;;;66.40;38.75;;;1.50;99.90;;;;;;5018202;28;20414;-72
2021/12/23 11:27:35;;;;;;;68.78;38.78;;;1.60;99.90;;;;;;5016206;28;20119;-73
2021/12/23 11:36:15;;;;;;;70.00;39.25;;;1.60;99.90;;;;;;5015511;28;20173;-72
2021/12/23 11:41:20;;;;;;;67.32;38.72;;;1.60;99.90;;;;;;5014740;28;20049;-70
2021/12/23 11:43:51;;;;;;;62.72;37.00;;;1.60;99.90;;;;;;5014198;28;20487;-71
2021/12/23 11:46:24;;;;;;;61.83;37.83;;;1.60;99.90;;;;;;5015024;28;20401;-70
2021/12/23 11:48:53;;;;;;;66.07;37.95;;;1.60;99.90;;;;;;4997213;28;20065;-71
2021/12/23 11:53:57;;;;;;;67.07;38.65;;;1.70;99.90;;;;;;5014606;28;20129;-72
2021/12/23 11:56:24;;;;;;;71.35;38.95;;;1.70;99.90;;;;;;5014892;28;20081;-71
2021/12/23 11:58:51;;;;;;;70.32;36.83;;;1.70;99.90;;;;;;5014690;28;20049;-71
2021/12/23 12:01:29;;;;;;;67.97;37.95;;;1.70;99.90;;;;;;4997186;28;20449;-70
2021/12/23 12:04:05;;;;;;;66.32;38.17;;;1.80;99.90;;;;;;5014563;28;20060;-71
2021/12/23 12:06:40;;;;;;;66.72;38.08;;;1.80;99.90;;;;;;5014685;28;20046;-70
2021/12/23 12:09:26;;;;;;;60.03;35.78;;;1.90;99.90;;;;;;5014333;28;20050;-73
2021/12/23 12:12:07;;;;;;;69.45;38.67;;;1.80;99.90;;;;;;5014458;28;20050;-70
2021/12/23 12:14:39;;;;;;;67.35;37.38;;;1.90;99.90;;;;;;4996867;28;20092;-70
2021/12/23 12:17:25;;;;;;;66.03;37.75;;;1.90;99.90;;;;;;5014103;28;20871;-70
2021/12/23 12:20:10;;;;;;;67.40;36.22;;;1.80;99.90;;;;;;5014006;28;20524;-70
2021/12/23 12:23:13;;;;;;;66.57;38.25;;;1.90;99.90;;;;;;5014366;28;20045;-72
2021/12/23 12:25:40;;;;;;;63.28;36.63;;;1.90;99.90;;;;;;5014517;28;20049;-73
2021/12/23 12:28:06;;;;;;;68.22;37.35;;;1.90;99.90;;;;;;5014004;28;20072;-73
2021/12/23 12:30:36;;;;;;;57.97;36.03;;;1.90;99.90;;;;;;5014408;28;20042;-73
2021/12/23 12:33:09;;;;;;;62.17;35.67;;;1.90;99.90;;;;;;5023717;28;20501;-73
2021/12/23 12:35:35;;;;;;;65.43;36.55;;;1.90;99.90;;;;;;5025102;28;20060;-73
2021/12/23 12:38:18;;;;;;;65.43;35.97;;;1.90;99.90;;;;;;5030469;28;20153;-73
2021/12/23 12:41:12;;;;;;;67.85;36.83;;;1.90;99.90;;;;;;5001677;28;20057;-75
2021/12/23 12:43:59;;;;;;;64.03;35.00;;;1.90;99.90;;;;;;5013902;28;20556;-77
2021/12/23 12:46:35;;;;;;;65.70;37.53;;;2.00;99.90;;;;;;5014255;28;20053;-73
2021/12/23 12:49:11;;;;;;;70.43;37.38;;;2.00;99.90;;;;;;5013369;28;20525;-71
2021/12/23 12:51:42;;;;;;;68.15;37.63;;;2.00;99.90;;;;;;5013893;28;20057;-72
2021/12/23 12:54:12;;;;;;;69.82;39.72;;;2.00;99.90;;;;;;5013103;28;20405;-71
2021/12/23 12:56:51;;;;;;;64.32;36.45;;;2.00;99.90;;;;;;5012259;28;20128;-73
2021/12/23 12:59:18;;;;;;;60.30;36.08;;;2.00;99.90;;;;;;5013002;28;20099;-72
2021/12/23 13:01:49;;;;;;;72.38;37.67;;;1.90;99.90;;;;;;5013755;28;20128;-72
2021/12/23 13:04:31;;;;;;;69.28;38.17;;;2.00;99.90;;;;;;5013456;28;20050;-72
2021/12/23 13:07:11;;;;;;;61.53;36.72;;;2.00;99.90;;;;;;5013318;28;20053;-72
2021/12/23 13:09:49;;;;;;;65.47;37.13;;;2.00;99.90;;;;;;5013565;28;20128;-71
2021/12/23 13:12:46;;;;;;;69.80;39.20;;;2.00;99.90;;;;;;5013208;28;20053;-76
2021/12/23 13:15:21;;;;;;;66.28;36.15;;;2.00;99.90;;;;;;5013254;28;20053;-75
2021/12/23 13:17:56;;;;;;;71.30;38.22;;;2.00;99.90;;;;;;5013247;28;20053;-72
2021/12/23 13:20:44;;;;;;;64.38;35.33;;;2.00;99.90;;;;;;5013286;28;20133;-72
2021/12/23 13:23:31;;;;;;;62.05;35.90;;;2.00;99.90;;;;;;5012964;28;20057;-72
2021/12/23 13:26:00;;;;;;;62.42;35.72;;;2.00;99.90;;;;;;5012948;28;20057;-72
2021/12/23 13:28:35;;;;;;;63.47;36.38;;;2.00;99.90;;;;;;5012993;28;20049;-70
2021/12/23 13:31:04;;;;;;;70.10;38.97;;;2.00;99.90;;;;;;5012896;28;20150;-70
2021/12/23 13:33:30;;;;;;;70.07;36.90;;;2.00;99.90;;;;;;5012661;28;20572;-70
2021/12/23 13:35:57;;;;;;;68.90;38.30;;;2.00;99.90;;;;;;5012939;28;20066;-70
2021/12/23 13:38:39;;;;;;;69.22;37.97;;;2.00;99.90;;;;;;5013051;28;20049;-69
2021/12/23 13:41:14;;;;;;;66.90;37.17;;;2.00;99.90;;;;;;5012733;28;20478;-70
2021/12/23 13:43:40;;;;;;;68.65;37.95;;;2.00;99.90;;;;;;5013018;28;20096;-69
2021/12/23 13:46:08;;;;;;;64.50;36.77;;;2.40;99.90;;;;;;5012344;28;20081;-69
2021/12/23 13:48:47;;;;;;;68.68;37.78;;;;;;;;;;5012793;28;20395;-70
2021/12/23 13:51:13;;;;;;;60.70;36.38;;;;;;;;;;5012770;28;20046;-69
2021/12/23 13:53:40;;;;;;;72.45;38.05;;;;;;;;;;5013076;28;20112;-70
2021/12/23 13:56:16;;;;;;;65.85;37.65;;;;;;;;;;5012633;28;20137;-70
2021/12/23 13:58:42;;;;;;;63.10;36.22;;;;;;;;;;5012825;28;20100;-69
2021/12/23 14:01:09;;;;;;;61.63;34.85;;;;;;;;;;5012453;28;20088;-69
2021/12/23 14:03:35;;;;;;;72.95;38.72;;;;;;;;;;5012843;28;20045;-69
2021/12/23 14:06:02;;;;;;;66.50;36.67;;;;;;;;;;5012501;28;20407;-70
2021/12/23 14:08:30;;;;;;;66.18;37.05;;;;;;;;;;5015145;28;20050;-69
2021/12/23 14:10:58;;;;;;;68.78;37.22;;;;;;;;;;5016787;28;20046;-69
2021/12/23 14:13:24;;;;;;;60.45;34.58;;;;;;;;;;5016683;28;20517;-69
2021/12/23 14:15:51;;;;;;;72.57;37.80;;;;;;;;;;5016645;28;20046;-69
2021/12/23 14:18:32;;;;;;;66.95;37.72;;;;;;;;;;5016382;28;20080;-69
2021/12/23 14:23:28;;;;;;;66.72;38.08;;;;;;;;;;4999244;28;20376;-69
2021/12/23 14:26:03;;;;;;;72.72;38.58;;;;;;;;;;5016506;28;20111;-69